sensor_id;sensor_type;location;lat;lon;timestamp;P1;durP1;ratioP1;P2;durP2;ratioP2
8285;SDS011;4181;43.416;24.598;2022-08-19T00:01:12;9.40;;;8.07;;
8285;SDS011;4181;43.416;24.598;2022-08-19T00:03:38;12.40;;;8.47;;
8285;SDS011;4181;43.416;24.598;2022-08-19T00:06:04;11.90;;;8.70;;
8285;SDS011;4181;43.416;24.598;2022-08-19T00:08:29;15.90;;;8.27;;
8285;SDS011;4181;43.416;24.598;2022-08-19T00:10:55;13.83;;;8.17;;
8285;SDS011;4181;43.416;24.598;2022-08-19T00:13:21;11.63;;;9.10;;
8285;SDS011;4181;43.416;24.598;2022-08-19T00:15:47;10.20;;;8.30;;
8285;SDS011;4181;43.416;24.598;2022-08-19T00:18:12;9.17;;;8.27;;
8285;SDS011;4181;43.416;24.598;2022-08-19T00:20:38;10.77;;;8.93;;
8285;SDS011;4181;43.416;24.598;2022-08-19T00:23:05;9.20;;;8.20;;
8285;SDS011;4181;43.416;24.598;2022-08-19T00:25:32;15.23;;;8.50;;
8285;SDS011;4181;43.416;24.598;2022-08-19T00:27:58;13.50;;;8.27;;
8285;SDS011;4181;43.416;24.598;2022-08-19T00:30:24;12.27;;;7.77;;
8285;SDS011;4181;43.416;24.598;2022-08-19T00:32:52;10.23;;;8.27;;
8285;SDS011;4181;43.416;24.598;2022-08-19T00:35:19;10.47;;;8.17;;
8285;SDS011;4181;43.416;24.598;2022-08-19T00:37:46;17.80;;;8.53;;
8285;SDS011;4181;43.416;24.598;2022-08-19T00:40:13;14.97;;;8.60;;
8285;SDS011;4181;43.416;24.598;2022-08-19T00:42:39;12.13;;;8.13;;
8285;SDS011;4181;43.416;24.598;2022-08-19T00:45:09;8.43;;;7.63;;
8285;SDS011;4181;43.416;24.598;2022-08-19T00:47:37;8.10;;;7.40;;
8285;SDS011;4181;43.416;24.598;2022-08-19T00:50:03;10.77;;;8.73;;
8285;SDS011;4181;43.416;24.598;2022-08-19T00:52:31;11.47;;;8.13;;
8285;SDS011;4181;43.416;24.598;2022-08-19T00:55:00;13.33;;;8.07;;
8285;SDS011;4181;43.416;24.598;2022-08-19T00:57:27;10.83;;;7.73;;
8285;SDS011;4181;43.416;24.598;2022-08-19T01:00:03;10.70;;;8.33;;
8285;SDS011;4181;43.416;24.598;2022-08-19T01:02:33;9.03;;;8.13;;
8285;SDS011;4181;43.416;24.598;2022-08-19T01:05:00;18.73;;;9.73;;
8285;SDS011;4181;43.416;24.598;2022-08-19T01:07:29;9.13;;;8.17;;
8285;SDS011;4181;43.416;24.598;2022-08-19T01:09:55;11.87;;;8.13;;
8285;SDS011;4181;43.416;24.598;2022-08-19T01:12:21;12.53;;;8.93;;
8285;SDS011;4181;43.416;24.598;2022-08-19T01:14:47;12.73;;;8.17;;
8285;SDS011;4181;43.416;24.598;2022-08-19T01:17:14;13.37;;;7.77;;
8285;SDS011;4181;43.416;24.598;2022-08-19T01:19:41;10.20;;;8.00;;
8285;SDS011;4181;43.416;24.598;2022-08-19T01:22:30;9.23;;;8.07;;
8285;SDS011;4181;43.416;24.598;2022-08-19T01:25:01;8.90;;;7.80;;
8285;SDS011;4181;43.416;24.598;2022-08-19T01:27:37;10.50;;;8.47;;
8285;SDS011;4181;43.416;24.598;2022-08-19T01:30:08;8.53;;;7.73;;
8285;SDS011;4181;43.416;24.598;2022-08-19T01:32:35;10.47;;;8.40;;
8285;SDS011;4181;43.416;24.598;2022-08-19T01:35:01;12.90;;;8.63;;
8285;SDS011;4181;43.416;24.598;2022-08-19T01:37:27;14.00;;;9.07;;
8285;SDS011;4181;43.416;24.598;2022-08-19T01:39:55;10.80;;;9.00;;
8285;SDS011;4181;43.416;24.598;2022-08-19T01:42:20;11.53;;;9.30;;
8285;SDS011;4181;43.416;24.598;2022-08-19T01:44:47;10.27;;;8.93;;
8285;SDS011;4181;43.416;24.598;2022-08-19T01:47:13;12.07;;;9.23;;
8285;SDS011;4181;43.416;24.598;2022-08-19T01:49:38;10.70;;;8.73;;
8285;SDS011;4181;43.416;24.598;2022-08-19T01:52:04;10.07;;;9.07;;
8285;SDS011;4181;43.416;24.598;2022-08-19T01:54:30;13.00;;;8.57;;
8285;SDS011;4181;43.416;24.598;2022-08-19T01:57:02;9.90;;;8.90;;
8285;SDS011;4181;43.416;24.598;2022-08-19T01:59:30;11.60;;;9.03;;
8285;SDS011;4181;43.416;24.598;2022-08-19T02:01:57;11.67;;;9.70;;
8285;SDS011;4181;43.416;24.598;2022-08-19T02:04:23;11.40;;;9.90;;
8285;SDS011;4181;43.416;24.598;2022-08-19T02:06:50;10.57;;;9.57;;
8285;SDS011;4181;43.416;24.598;2022-08-19T02:09:15;9.87;;;8.97;;
8285;SDS011;4181;43.416;24.598;2022-08-19T02:11:41;12.20;;;9.40;;
8285;SDS011;4181;43.416;24.598;2022-08-19T02:14:07;17.33;;;9.93;;
8285;SDS011;4181;43.416;24.598;2022-08-19T02:16:33;16.47;;;8.87;;
8285;SDS011;4181;43.416;24.598;2022-08-19T02:18:59;46.67;;;13.17;;
8285;SDS011;4181;43.416;24.598;2022-08-19T02:21:25;16.33;;;9.60;;
8285;SDS011;4181;43.416;24.598;2022-08-19T02:23:52;20.87;;;9.97;;
8285;SDS011;4181;43.416;24.598;2022-08-19T02:26:17;11.17;;;9.57;;
8285;SDS011;4181;43.416;24.598;2022-08-19T02:28:44;10.07;;;9.17;;
8285;SDS011;4181;43.416;24.598;2022-08-19T02:31:11;10.90;;;9.63;;
8285;SDS011;4181;43.416;24.598;2022-08-19T02:33:37;10.47;;;9.40;;
8285;SDS011;4181;43.416;24.598;2022-08-19T02:36:04;12.17;;;10.03;;
8285;SDS011;4181;43.416;24.598;2022-08-19T02:38:30;11.63;;;10.30;;
8285;SDS011;4181;43.416;24.598;2022-08-19T02:44:04;11.50;;;8.97;;
8285;SDS011;4181;43.416;24.598;2022-08-19T02:46:31;11.33;;;9.83;;
8285;SDS011;4181;43.416;24.598;2022-08-19T02:48:59;13.07;;;9.93;;
8285;SDS011;4181;43.416;24.598;2022-08-19T02:51:31;11.30;;;9.50;;
8285;SDS011;4181;43.416;24.598;2022-08-19T02:53:58;19.33;;;10.60;;
8285;SDS011;4181;43.416;24.598;2022-08-19T02:56:25;10.47;;;9.47;;
8285;SDS011;4181;43.416;24.598;2022-08-19T02:58:54;14.87;;;10.20;;
8285;SDS011;4181;43.416;24.598;2022-08-19T03:01:24;11.50;;;9.57;;
8285;SDS011;4181;43.416;24.598;2022-08-19T03:03:57;13.17;;;10.40;;
8285;SDS011;4181;43.416;24.598;2022-08-19T03:06:27;12.00;;;9.77;;
8285;SDS011;4181;43.416;24.598;2022-08-19T03:08:53;10.43;;;9.27;;
8285;SDS011;4181;43.416;24.598;2022-08-19T03:11:20;13.03;;;10.10;;
8285;SDS011;4181;43.416;24.598;2022-08-19T03:13:49;22.67;;;10.70;;
8285;SDS011;4181;43.416;24.598;2022-08-19T03:16:16;19.80;;;11.50;;
8285;SDS011;4181;43.416;24.598;2022-08-19T03:18:42;24.40;;;12.10;;
8285;SDS011;4181;43.416;24.598;2022-08-19T03:21:08;12.70;;;11.20;;
8285;SDS011;4181;43.416;24.598;2022-08-19T03:23:34;26.03;;;12.67;;
8285;SDS011;4181;43.416;24.598;2022-08-19T03:26:03;25.20;;;13.20;;
8285;SDS011;4181;43.416;24.598;2022-08-19T03:28:30;12.47;;;11.00;;
8285;SDS011;4181;43.416;24.598;2022-08-19T03:30:57;12.70;;;10.77;;
8285;SDS011;4181;43.416;24.598;2022-08-19T03:33:25;14.57;;;9.83;;
8285;SDS011;4181;43.416;24.598;2022-08-19T03:38:30;12.20;;;10.00;;
8285;SDS011;4181;43.416;24.598;2022-08-19T03:41:07;13.30;;;9.90;;
8285;SDS011;4181;43.416;24.598;2022-08-19T03:43:37;14.63;;;10.83;;
8285;SDS011;4181;43.416;24.598;2022-08-19T03:46:05;14.23;;;10.50;;
8285;SDS011;4181;43.416;24.598;2022-08-19T03:48:36;15.27;;;10.60;;
8285;SDS011;4181;43.416;24.598;2022-08-19T03:51:03;11.60;;;10.10;;
8285;SDS011;4181;43.416;24.598;2022-08-19T03:53:30;13.00;;;10.47;;
8285;SDS011;4181;43.416;24.598;2022-08-19T03:55:57;15.50;;;10.27;;
8285;SDS011;4181;43.416;24.598;2022-08-19T03:58:27;14.27;;;10.20;;
8285;SDS011;4181;43.416;24.598;2022-08-19T04:00:55;15.57;;;10.53;;
8285;SDS011;4181;43.416;24.598;2022-08-19T04:03:21;17.00;;;10.43;;
8285;SDS011;4181;43.416;24.598;2022-08-19T04:05:47;19.17;;;11.10;;
8285;SDS011;4181;43.416;24.598;2022-08-19T04:08:13;11.83;;;10.13;;
8285;SDS011;4181;43.416;24.598;2022-08-19T04:10:43;14.50;;;12.47;;
8285;SDS011;4181;43.416;24.598;2022-08-19T04:13:08;17.63;;;12.10;;
8285;SDS011;4181;43.416;24.598;2022-08-19T04:15:38;20.07;;;12.17;;
8285;SDS011;4181;43.416;24.598;2022-08-19T04:18:06;25.87;;;10.40;;
8285;SDS011;4181;43.416;24.598;2022-08-19T04:20:32;24.07;;;11.10;;
8285;SDS011;4181;43.416;24.598;2022-08-19T04:23:12;21.13;;;11.40;;
8285;SDS011;4181;43.416;24.598;2022-08-19T04:25:39;26.93;;;11.20;;
8285;SDS011;4181;43.416;24.598;2022-08-19T04:28:08;16.33;;;10.60;;
8285;SDS011;4181;43.416;24.598;2022-08-19T04:30:45;17.93;;;10.17;;
8285;SDS011;4181;43.416;24.598;2022-08-19T04:33:14;21.47;;;11.37;;
8285;SDS011;4181;43.416;24.598;2022-08-19T04:35:42;22.20;;;11.10;;
8285;SDS011;4181;43.416;24.598;2022-08-19T04:38:10;29.37;;;11.13;;
8285;SDS011;4181;43.416;24.598;2022-08-19T04:40:44;31.40;;;11.93;;
8285;SDS011;4181;43.416;24.598;2022-08-19T04:43:32;88.07;;;26.63;;
8285;SDS011;4181;43.416;24.598;2022-08-19T04:46:04;24.60;;;11.97;;
8285;SDS011;4181;43.416;24.598;2022-08-19T04:48:33;27.43;;;12.03;;
8285;SDS011;4181;43.416;24.598;2022-08-19T04:50:59;31.90;;;11.77;;
8285;SDS011;4181;43.416;24.598;2022-08-19T04:53:26;37.20;;;11.70;;
8285;SDS011;4181;43.416;24.598;2022-08-19T04:55:56;27.17;;;11.77;;
8285;SDS011;4181;43.416;24.598;2022-08-19T04:58:24;32.43;;;12.07;;
8285;SDS011;4181;43.416;24.598;2022-08-19T05:00:51;59.70;;;32.07;;
8285;SDS011;4181;43.416;24.598;2022-08-19T05:03:18;47.40;;;23.13;;
8285;SDS011;4181;43.416;24.598;2022-08-19T05:05:45;26.63;;;12.90;;
8285;SDS011;4181;43.416;24.598;2022-08-19T05:08:13;17.97;;;10.50;;
8285;SDS011;4181;43.416;24.598;2022-08-19T05:10:44;20.47;;;10.57;;
8285;SDS011;4181;43.416;24.598;2022-08-19T05:13:11;16.63;;;10.50;;
8285;SDS011;4181;43.416;24.598;2022-08-19T05:15:37;13.53;;;9.77;;
8285;SDS011;4181;43.416;24.598;2022-08-19T05:18:02;13.63;;;10.50;;
8285;SDS011;4181;43.416;24.598;2022-08-19T05:20:46;15.73;;;9.17;;
8285;SDS011;4181;43.416;24.598;2022-08-19T05:23:30;18.43;;;10.27;;
8285;SDS011;4181;43.416;24.598;2022-08-19T05:25:56;15.27;;;10.03;;
8285;SDS011;4181;43.416;24.598;2022-08-19T05:28:21;17.17;;;9.23;;
8285;SDS011;4181;43.416;24.598;2022-08-19T05:30:47;14.37;;;10.40;;
8285;SDS011;4181;43.416;24.598;2022-08-19T05:33:13;18.43;;;10.30;;
8285;SDS011;4181;43.416;24.598;2022-08-19T05:35:39;17.90;;;9.77;;
8285;SDS011;4181;43.416;24.598;2022-08-19T05:38:06;21.00;;;10.37;;
8285;SDS011;4181;43.416;24.598;2022-08-19T05:40:37;17.00;;;10.37;;
8285;SDS011;4181;43.416;24.598;2022-08-19T05:43:05;17.57;;;9.60;;
8285;SDS011;4181;43.416;24.598;2022-08-19T05:45:31;12.30;;;8.93;;
8285;SDS011;4181;43.416;24.598;2022-08-19T05:47:58;15.70;;;8.83;;
8285;SDS011;4181;43.416;24.598;2022-08-19T05:50:24;14.97;;;8.93;;
8285;SDS011;4181;43.416;24.598;2022-08-19T05:52:53;13.27;;;8.83;;
8285;SDS011;4181;43.416;24.598;2022-08-19T05:55:18;17.50;;;9.30;;
8285;SDS011;4181;43.416;24.598;2022-08-19T05:57:45;10.87;;;8.70;;
8285;SDS011;4181;43.416;24.598;2022-08-19T06:00:11;14.83;;;9.03;;
8285;SDS011;4181;43.416;24.598;2022-08-19T06:02:37;38.77;;;11.73;;
8285;SDS011;4181;43.416;24.598;2022-08-19T06:05:03;15.63;;;9.20;;
8285;SDS011;4181;43.416;24.598;2022-08-19T06:07:32;13.97;;;8.70;;
8285;SDS011;4181;43.416;24.598;2022-08-19T06:09:58;11.03;;;9.43;;
8285;SDS011;4181;43.416;24.598;2022-08-19T06:12:23;12.07;;;8.67;;
8285;SDS011;4181;43.416;24.598;2022-08-19T06:14:53;8.97;;;7.27;;
8285;SDS011;4181;43.416;24.598;2022-08-19T06:17:19;14.80;;;7.07;;
8285;SDS011;4181;43.416;24.598;2022-08-19T06:19:49;11.73;;;7.00;;
8285;SDS011;4181;43.416;24.598;2022-08-19T06:22:15;10.57;;;7.20;;
8285;SDS011;4181;43.416;24.598;2022-08-19T06:24:41;13.63;;;7.10;;
8285;SDS011;4181;43.416;24.598;2022-08-19T06:27:06;10.80;;;6.53;;
8285;SDS011;4181;43.416;24.598;2022-08-19T06:29:32;12.23;;;6.40;;
8285;SDS011;4181;43.416;24.598;2022-08-19T06:31:59;10.87;;;6.80;;
8285;SDS011;4181;43.416;24.598;2022-08-19T06:34:26;10.00;;;7.27;;
8285;SDS011;4181;43.416;24.598;2022-08-19T06:36:55;8.67;;;6.03;;
8285;SDS011;4181;43.416;24.598;2022-08-19T06:39:26;10.90;;;5.97;;
8285;SDS011;4181;43.416;24.598;2022-08-19T06:41:55;7.93;;;5.80;;
8285;SDS011;4181;43.416;24.598;2022-08-19T06:44:24;8.23;;;5.80;;
8285;SDS011;4181;43.416;24.598;2022-08-19T06:46:51;8.83;;;7.10;;
8285;SDS011;4181;43.416;24.598;2022-08-19T06:49:17;8.03;;;6.50;;
8285;SDS011;4181;43.416;24.598;2022-08-19T06:51:44;8.63;;;6.43;;
8285;SDS011;4181;43.416;24.598;2022-08-19T06:54:12;8.90;;;6.70;;
8285;SDS011;4181;43.416;24.598;2022-08-19T06:56:38;7.23;;;6.40;;
8285;SDS011;4181;43.416;24.598;2022-08-19T06:59:08;10.83;;;6.30;;
8285;SDS011;4181;43.416;24.598;2022-08-19T07:01:37;7.77;;;5.70;;
8285;SDS011;4181;43.416;24.598;2022-08-19T07:04:06;9.43;;;6.50;;
8285;SDS011;4181;43.416;24.598;2022-08-19T07:06:35;9.53;;;6.33;;
8285;SDS011;4181;43.416;24.598;2022-08-19T07:09:02;7.23;;;5.57;;
8285;SDS011;4181;43.416;24.598;2022-08-19T07:11:30;9.30;;;7.00;;
8285;SDS011;4181;43.416;24.598;2022-08-19T07:13:57;6.40;;;5.70;;
8285;SDS011;4181;43.416;24.598;2022-08-19T07:16:23;11.03;;;6.13;;
8285;SDS011;4181;43.416;24.598;2022-08-19T07:18:50;8.40;;;6.43;;
8285;SDS011;4181;43.416;24.598;2022-08-19T07:21:21;8.23;;;6.07;;
8285;SDS011;4181;43.416;24.598;2022-08-19T07:23:49;10.33;;;6.23;;
8285;SDS011;4181;43.416;24.598;2022-08-19T07:26:21;6.93;;;6.23;;
8285;SDS011;4181;43.416;24.598;2022-08-19T07:28:53;8.23;;;5.80;;
8285;SDS011;4181;43.416;24.598;2022-08-19T07:31:23;7.27;;;5.87;;
8285;SDS011;4181;43.416;24.598;2022-08-19T07:34:03;7.53;;;6.07;;
8285;SDS011;4181;43.416;24.598;2022-08-19T07:36:33;13.13;;;6.10;;
8285;SDS011;4181;43.416;24.598;2022-08-19T07:39:04;7.53;;;6.33;;
8285;SDS011;4181;43.416;24.598;2022-08-19T07:41:32;8.47;;;5.87;;
8285;SDS011;4181;43.416;24.598;2022-08-19T07:44:00;8.00;;;6.10;;
8285;SDS011;4181;43.416;24.598;2022-08-19T07:46:32;7.23;;;5.50;;
8285;SDS011;4181;43.416;24.598;2022-08-19T07:48:58;10.87;;;5.63;;
8285;SDS011;4181;43.416;24.598;2022-08-19T07:51:25;7.53;;;6.27;;
8285;SDS011;4181;43.416;24.598;2022-08-19T07:53:51;6.77;;;5.37;;
8285;SDS011;4181;43.416;24.598;2022-08-19T07:56:18;10.07;;;6.00;;
8285;SDS011;4181;43.416;24.598;2022-08-19T07:58:46;7.83;;;5.93;;
8285;SDS011;4181;43.416;24.598;2022-08-19T08:01:14;7.37;;;5.73;;
8285;SDS011;4181;43.416;24.598;2022-08-19T08:03:42;8.47;;;5.57;;
8285;SDS011;4181;43.416;24.598;2022-08-19T08:06:34;7.53;;;5.97;;
8285;SDS011;4181;43.416;24.598;2022-08-19T08:09:26;6.17;;;5.60;;
8285;SDS011;4181;43.416;24.598;2022-08-19T08:11:56;7.83;;;5.97;;
8285;SDS011;4181;43.416;24.598;2022-08-19T08:14:33;6.47;;;5.70;;
8285;SDS011;4181;43.416;24.598;2022-08-19T08:17:04;6.50;;;5.73;;
8285;SDS011;4181;43.416;24.598;2022-08-19T08:19:31;9.13;;;5.80;;
8285;SDS011;4181;43.416;24.598;2022-08-19T08:21:57;7.00;;;5.60;;
8285;SDS011;4181;43.416;24.598;2022-08-19T08:24:25;8.67;;;5.70;;
8285;SDS011;4181;43.416;24.598;2022-08-19T08:26:52;10.43;;;6.33;;
8285;SDS011;4181;43.416;24.598;2022-08-19T08:29:18;7.17;;;5.50;;
8285;SDS011;4181;43.416;24.598;2022-08-19T08:31:44;5.60;;;5.00;;
8285;SDS011;4181;43.416;24.598;2022-08-19T08:34:11;5.67;;;5.17;;
8285;SDS011;4181;43.416;24.598;2022-08-19T08:36:39;10.50;;;5.10;;
8285;SDS011;4181;43.416;24.598;2022-08-19T08:39:10;8.17;;;5.57;;
8285;SDS011;4181;43.416;24.598;2022-08-19T08:47:21;7.33;;;5.30;;
8285;SDS011;4181;43.416;24.598;2022-08-19T08:50:06;8.13;;;5.20;;
8285;SDS011;4181;43.416;24.598;2022-08-19T08:52:40;7.97;;;5.50;;
8285;SDS011;4181;43.416;24.598;2022-08-19T08:55:14;5.50;;;4.67;;
8285;SDS011;4181;43.416;24.598;2022-08-19T08:57:50;8.77;;;5.60;;
8285;SDS011;4181;43.416;24.598;2022-08-19T09:00:31;6.90;;;5.03;;
8285;SDS011;4181;43.416;24.598;2022-08-19T09:03:03;5.50;;;5.00;;
8285;SDS011;4181;43.416;24.598;2022-08-19T09:11:03;6.73;;;5.03;;
8285;SDS011;4181;43.416;24.598;2022-08-19T09:13:36;5.53;;;5.03;;
8285;SDS011;4181;43.416;24.598;2022-08-19T09:16:08;7.27;;;5.33;;
8285;SDS011;4181;43.416;24.598;2022-08-19T09:21:06;18.37;;;7.93;;
8285;SDS011;4181;43.416;24.598;2022-08-19T09:23:33;8.27;;;5.30;;
8285;SDS011;4181;43.416;24.598;2022-08-19T09:25:59;5.80;;;4.90;;
8285;SDS011;4181;43.416;24.598;2022-08-19T09:28:25;7.13;;;4.97;;
8285;SDS011;4181;43.416;24.598;2022-08-19T09:30:50;6.83;;;4.80;;
8285;SDS011;4181;43.416;24.598;2022-08-19T09:33:16;10.03;;;5.73;;
8285;SDS011;4181;43.416;24.598;2022-08-19T09:35:42;5.80;;;5.27;;
8285;SDS011;4181;43.416;24.598;2022-08-19T09:38:07;6.30;;;5.57;;
8285;SDS011;4181;43.416;24.598;2022-08-19T09:40:33;6.90;;;4.97;;
8285;SDS011;4181;43.416;24.598;2022-08-19T09:42:59;5.77;;;5.27;;
8285;SDS011;4181;43.416;24.598;2022-08-19T09:45:27;6.77;;;5.53;;
8285;SDS011;4181;43.416;24.598;2022-08-19T09:47:53;5.63;;;5.07;;
8285;SDS011;4181;43.416;24.598;2022-08-19T09:50:19;6.70;;;5.27;;
8285;SDS011;4181;43.416;24.598;2022-08-19T09:52:45;6.30;;;5.30;;
8285;SDS011;4181;43.416;24.598;2022-08-19T09:55:11;5.80;;;4.83;;
8285;SDS011;4181;43.416;24.598;2022-08-19T09:57:37;6.03;;;5.50;;
8285;SDS011;4181;43.416;24.598;2022-08-19T10:00:04;7.00;;;5.00;;
8285;SDS011;4181;43.416;24.598;2022-08-19T10:02:31;7.60;;;5.47;;
8285;SDS011;4181;43.416;24.598;2022-08-19T10:04:56;6.10;;;5.33;;
8285;SDS011;4181;43.416;24.598;2022-08-19T10:07:40;9.90;;;5.43;;
8285;SDS011;4181;43.416;24.598;2022-08-19T10:10:06;7.23;;;5.53;;
8285;SDS011;4181;43.416;24.598;2022-08-19T10:12:32;5.60;;;5.10;;
8285;SDS011;4181;43.416;24.598;2022-08-19T10:14:59;11.97;;;5.63;;
8285;SDS011;4181;43.416;24.598;2022-08-19T10:17:25;12.43;;;6.00;;
8285;SDS011;4181;43.416;24.598;2022-08-19T10:19:51;9.23;;;5.57;;
8285;SDS011;4181;43.416;24.598;2022-08-19T10:22:17;7.97;;;5.47;;
8285;SDS011;4181;43.416;24.598;2022-08-19T10:24:45;10.10;;;5.37;;
8285;SDS011;4181;43.416;24.598;2022-08-19T10:27:10;6.23;;;5.40;;
8285;SDS011;4181;43.416;24.598;2022-08-19T10:29:37;8.33;;;5.80;;
8285;SDS011;4181;43.416;24.598;2022-08-19T10:32:05;11.83;;;6.00;;
8285;SDS011;4181;43.416;24.598;2022-08-19T10:34:33;6.90;;;5.63;;
8285;SDS011;4181;43.416;24.598;2022-08-19T10:37:01;9.63;;;5.37;;
8285;SDS011;4181;43.416;24.598;2022-08-19T10:39:34;11.17;;;5.27;;
8285;SDS011;4181;43.416;24.598;2022-08-19T10:42:06;6.17;;;5.37;;
8285;SDS011;4181;43.416;24.598;2022-08-19T10:44:35;6.73;;;5.20;;
8285;SDS011;4181;43.416;24.598;2022-08-19T10:47:01;6.47;;;5.50;;
8285;SDS011;4181;43.416;24.598;2022-08-19T10:49:27;6.93;;;5.77;;
8285;SDS011;4181;43.416;24.598;2022-08-19T10:51:53;6.80;;;5.97;;
8285;SDS011;4181;43.416;24.598;2022-08-19T10:54:36;6.60;;;5.57;;
8285;SDS011;4181;43.416;24.598;2022-08-19T10:57:20;9.87;;;5.60;;
8285;SDS011;4181;43.416;24.598;2022-08-19T10:59:49;6.53;;;5.20;;
8285;SDS011;4181;43.416;24.598;2022-08-19T11:02:14;9.70;;;5.37;;
8285;SDS011;4181;43.416;24.598;2022-08-19T11:04:40;7.63;;;5.37;;
8285;SDS011;4181;43.416;24.598;2022-08-19T11:07:06;5.53;;;4.70;;
8285;SDS011;4181;43.416;24.598;2022-08-19T11:09:36;7.13;;;5.10;;
8285;SDS011;4181;43.416;24.598;2022-08-19T11:12:05;7.90;;;5.10;;
8285;SDS011;4181;43.416;24.598;2022-08-19T11:14:31;7.93;;;5.20;;
8285;SDS011;4181;43.416;24.598;2022-08-19T11:16:58;7.93;;;5.63;;
8285;SDS011;4181;43.416;24.598;2022-08-19T11:19:24;7.03;;;5.50;;
8285;SDS011;4181;43.416;24.598;2022-08-19T11:21:52;6.60;;;5.30;;
8285;SDS011;4181;43.416;24.598;2022-08-19T11:24:24;8.77;;;5.60;;
8285;SDS011;4181;43.416;24.598;2022-08-19T11:26:51;8.23;;;5.77;;
8285;SDS011;4181;43.416;24.598;2022-08-19T11:29:21;9.70;;;5.27;;
8285;SDS011;4181;43.416;24.598;2022-08-19T11:31:51;6.93;;;5.50;;
8285;SDS011;4181;43.416;24.598;2022-08-19T11:34:20;10.73;;;5.77;;
8285;SDS011;4181;43.416;24.598;2022-08-19T11:36:48;9.33;;;5.10;;
8285;SDS011;4181;43.416;24.598;2022-08-19T11:39:16;8.23;;;5.50;;
8285;SDS011;4181;43.416;24.598;2022-08-19T11:41:44;7.17;;;5.50;;
8285;SDS011;4181;43.416;24.598;2022-08-19T11:44:09;8.63;;;5.03;;
8285;SDS011;4181;43.416;24.598;2022-08-19T11:46:36;9.10;;;5.90;;
8285;SDS011;4181;43.416;24.598;2022-08-19T11:49:04;7.07;;;5.50;;
8285;SDS011;4181;43.416;24.598;2022-08-19T11:51:32;7.30;;;5.30;;
8285;SDS011;4181;43.416;24.598;2022-08-19T11:53:59;10.17;;;5.20;;
8285;SDS011;4181;43.416;24.598;2022-08-19T11:56:24;7.20;;;5.63;;
8285;SDS011;4181;43.416;24.598;2022-08-19T11:58:51;7.73;;;5.20;;
8285;SDS011;4181;43.416;24.598;2022-08-19T12:01:18;7.87;;;5.93;;
8285;SDS011;4181;43.416;24.598;2022-08-19T12:03:49;5.93;;;5.43;;
8285;SDS011;4181;43.416;24.598;2022-08-19T12:06:20;9.30;;;5.20;;
8285;SDS011;4181;43.416;24.598;2022-08-19T12:08:50;9.30;;;5.33;;
8285;SDS011;4181;43.416;24.598;2022-08-19T12:11:17;6.67;;;5.33;;
8285;SDS011;4181;43.416;24.598;2022-08-19T12:13:42;7.07;;;5.80;;
8285;SDS011;4181;43.416;24.598;2022-08-19T12:16:16;12.23;;;6.00;;
8285;SDS011;4181;43.416;24.598;2022-08-19T12:18:44;9.63;;;5.67;;
8285;SDS011;4181;43.416;24.598;2022-08-19T12:21:11;8.93;;;5.53;;
8285;SDS011;4181;43.416;24.598;2022-08-19T12:23:38;10.90;;;5.40;;
8285;SDS011;4181;43.416;24.598;2022-08-19T12:26:04;6.20;;;5.33;;
8285;SDS011;4181;43.416;24.598;2022-08-19T12:28:31;9.03;;;5.90;;
8285;SDS011;4181;43.416;24.598;2022-08-19T12:30:57;9.67;;;6.10;;
8285;SDS011;4181;43.416;24.598;2022-08-19T12:33:23;10.43;;;5.60;;
8285;SDS011;4181;43.416;24.598;2022-08-19T12:35:51;12.10;;;6.10;;
8285;SDS011;4181;43.416;24.598;2022-08-19T12:38:16;7.30;;;6.60;;
8285;SDS011;4181;43.416;24.598;2022-08-19T12:40:46;9.27;;;5.93;;
8285;SDS011;4181;43.416;24.598;2022-08-19T12:43:13;9.60;;;4.80;;
8285;SDS011;4181;43.416;24.598;2022-08-19T12:45:40;5.87;;;5.23;;
8285;SDS011;4181;43.416;24.598;2022-08-19T12:48:07;7.60;;;5.23;;
8285;SDS011;4181;43.416;24.598;2022-08-19T12:50:34;10.00;;;5.33;;
8285;SDS011;4181;43.416;24.598;2022-08-19T12:52:59;5.63;;;5.13;;
8285;SDS011;4181;43.416;24.598;2022-08-19T12:55:25;9.35;;;5.63;;
8285;SDS011;4181;43.416;24.598;2022-08-19T12:57:53;6.45;;;5.47;;
8285;SDS011;4181;43.416;24.598;2022-08-19T13:00:20;12.83;;;11.50;;
8285;SDS011;4181;43.416;24.598;2022-08-19T13:02:47;8.73;;;6.95;;
8285;SDS011;4181;43.416;24.598;2022-08-19T13:05:25;6.20;;;5.25;;
8285;SDS011;4181;43.416;24.598;2022-08-19T13:07:54;6.60;;;5.30;;
8285;SDS011;4181;43.416;24.598;2022-08-19T13:10:21;9.00;;;5.28;;
8285;SDS011;4181;43.416;24.598;2022-08-19T13:12:48;13.13;;;7.45;;
8285;SDS011;4181;43.416;24.598;2022-08-19T13:15:16;9.57;;;5.88;;
8285;SDS011;4181;43.416;24.598;2022-08-19T13:17:47;7.40;;;5.30;;
8285;SDS011;4181;43.416;24.598;2022-08-19T13:20:14;10.27;;;5.63;;
8285;SDS011;4181;43.416;24.598;2022-08-19T13:22:42;8.32;;;5.32;;
8285;SDS011;4181;43.416;24.598;2022-08-19T13:25:09;7.80;;;5.70;;
8285;SDS011;4181;43.416;24.598;2022-08-19T13:27:36;6.97;;;5.43;;
8285;SDS011;4181;43.416;24.598;2022-08-19T13:30:02;9.87;;;5.93;;
8285;SDS011;4181;43.416;24.598;2022-08-19T13:32:47;9.90;;;5.47;;
8285;SDS011;4181;43.416;24.598;2022-08-19T13:35:31;8.03;;;5.07;;
8285;SDS011;4181;43.416;24.598;2022-08-19T13:37:57;5.80;;;5.30;;
8285;SDS011;4181;43.416;24.598;2022-08-19T13:40:23;7.80;;;5.23;;
8285;SDS011;4181;43.416;24.598;2022-08-19T13:42:52;6.20;;;5.33;;
8285;SDS011;4181;43.416;24.598;2022-08-19T13:45:19;6.33;;;5.73;;
8285;SDS011;4181;43.416;24.598;2022-08-19T13:47:48;6.37;;;5.80;;
8285;SDS011;4181;43.416;24.598;2022-08-19T13:50:16;9.83;;;5.27;;
8285;SDS011;4181;43.416;24.598;2022-08-19T13:52:43;7.83;;;5.33;;
8285;SDS011;4181;43.416;24.598;2022-08-19T13:55:10;8.37;;;5.37;;
8285;SDS011;4181;43.416;24.598;2022-08-19T13:57:36;8.13;;;5.70;;
8285;SDS011;4181;43.416;24.598;2022-08-19T14:00:04;10.90;;;5.37;;
8285;SDS011;4181;43.416;24.598;2022-08-19T14:02:36;7.77;;;5.60;;
8285;SDS011;4181;43.416;24.598;2022-08-19T14:05:03;11.70;;;6.23;;
8285;SDS011;4181;43.416;24.598;2022-08-19T14:07:30;10.30;;;6.40;;
8285;SDS011;4181;43.416;24.598;2022-08-19T14:09:55;10.93;;;5.37;;
8285;SDS011;4181;43.416;24.598;2022-08-19T14:12:21;6.80;;;5.93;;
8285;SDS011;4181;43.416;24.598;2022-08-19T14:14:47;9.27;;;5.80;;
8285;SDS011;4181;43.416;24.598;2022-08-19T14:17:13;10.93;;;6.37;;
8285;SDS011;4181;43.416;24.598;2022-08-19T14:19:40;6.23;;;5.60;;
8285;SDS011;4181;43.416;24.598;2022-08-19T14:22:05;9.50;;;6.20;;
8285;SDS011;4181;43.416;24.598;2022-08-19T14:24:31;11.17;;;5.63;;
8285;SDS011;4181;43.416;24.598;2022-08-19T14:26:58;7.30;;;5.60;;
8285;SDS011;4181;43.416;24.598;2022-08-19T14:29:24;12.03;;;5.60;;
8285;SDS011;4181;43.416;24.598;2022-08-19T14:31:49;6.93;;;5.60;;
8285;SDS011;4181;43.416;24.598;2022-08-19T14:34:15;8.80;;;5.87;;
8285;SDS011;4181;43.416;24.598;2022-08-19T14:36:40;8.87;;;5.83;;
8285;SDS011;4181;43.416;24.598;2022-08-19T14:39:08;11.60;;;6.10;;
8285;SDS011;4181;43.416;24.598;2022-08-19T14:41:34;11.60;;;6.10;;
8285;SDS011;4181;43.416;24.598;2022-08-19T14:44:00;8.03;;;5.67;;
8285;SDS011;4181;43.416;24.598;2022-08-19T14:46:26;6.10;;;5.50;;
8285;SDS011;4181;43.416;24.598;2022-08-19T14:48:54;6.10;;;5.30;;
8285;SDS011;4181;43.416;24.598;2022-08-19T14:51:20;6.23;;;5.20;;
8285;SDS011;4181;43.416;24.598;2022-08-19T14:53:47;8.07;;;5.60;;
8285;SDS011;4181;43.416;24.598;2022-08-19T14:56:15;11.97;;;5.97;;
8285;SDS011;4181;43.416;24.598;2022-08-19T14:58:44;8.57;;;5.37;;
8285;SDS011;4181;43.416;24.598;2022-08-19T15:01:11;12.23;;;6.40;;
8285;SDS011;4181;43.416;24.598;2022-08-19T15:03:37;12.40;;;5.37;;
8285;SDS011;4181;43.416;24.598;2022-08-19T15:06:06;10.30;;;5.70;;
8285;SDS011;4181;43.416;24.598;2022-08-19T15:08:33;8.47;;;5.27;;
8285;SDS011;4181;43.416;24.598;2022-08-19T15:11:01;8.37;;;5.70;;
8285;SDS011;4181;43.416;24.598;2022-08-19T15:13:28;8.47;;;5.53;;
8285;SDS011;4181;43.416;24.598;2022-08-19T15:15:55;12.40;;;5.90;;
8285;SDS011;4181;43.416;24.598;2022-08-19T15:18:21;7.70;;;5.33;;